createdAt,value
2024-04-24T00:01:55.921Z,21.83
2024-04-24T00:05:09.316Z,22.40
2024-04-24T00:08:16.145Z,17.67
2024-04-24T00:11:25.698Z,21.17
2024-04-24T00:14:38.809Z,21.92
2024-04-24T00:17:49.769Z,21.98
2024-04-24T00:21:09.523Z,22.10
2024-04-24T00:24:23.326Z,24.10
2024-04-24T00:27:36.140Z,25.88
2024-04-24T00:30:48.776Z,23.65
2024-04-24T00:33:57.851Z,24.88
2024-04-24T00:37:11.524Z,27.75
2024-04-24T00:40:18.943Z,28.80
2024-04-24T00:43:25.200Z,27.38
2024-04-24T00:46:32.419Z,26.80
2024-04-24T00:49:38.662Z,26.25
2024-04-24T00:52:49.797Z,24.75
2024-04-24T00:56:02.624Z,23.73
2024-04-24T00:59:16.324Z,22.73
2024-04-24T01:02:27.215Z,21.60
2024-04-24T01:05:38.418Z,21.23
2024-04-24T01:08:47.874Z,20.17
2024-04-24T01:12:00.678Z,19.63
2024-04-24T01:15:10.007Z,15.37
2024-04-24T01:18:22.480Z,18.52
2024-04-24T01:22:01.725Z,17.85
2024-04-24T01:28:47.960Z,16.20
2024-04-24T01:31:55.437Z,15.75
2024-04-24T01:35:17.180Z,15.93
2024-04-24T01:38:24.992Z,15.82
2024-04-24T01:41:36.082Z,15.93
2024-04-24T01:44:45.595Z,16.95
2024-04-24T01:47:58.760Z,15.80
2024-04-24T01:51:10.884Z,15.63
2024-04-24T01:54:21.799Z,16.00
2024-04-24T01:57:33.469Z,15.40
2024-04-24T02:00:42.544Z,16.33
2024-04-24T02:04:00.534Z,17.50
2024-04-24T02:07:10.423Z,16.52
2024-04-24T02:10:18.473Z,16.42
2024-04-24T02:13:27.656Z,16.35
2024-04-24T02:16:38.120Z,15.38
2024-04-24T02:19:44.366Z,16.60
2024-04-24T02:22:59.842Z,14.75
2024-04-24T02:26:16.264Z,16.52
2024-04-24T02:29:34.529Z,14.02
2024-04-24T02:32:51.838Z,14.90
2024-04-24T02:36:01.284Z,14.85
2024-04-24T02:39:22.862Z,15.32
2024-04-24T02:42:32.214Z,15.80
2024-04-24T02:45:43.447Z,15.45
2024-04-24T02:48:52.198Z,16.48
2024-04-24T02:52:02.589Z,17.75
2024-04-24T02:55:10.432Z,17.15
2024-04-24T02:58:19.567Z,23.63
2024-04-24T03:01:31.196Z,17.88
2024-04-24T03:04:37.710Z,17.48
2024-04-24T03:07:45.043Z,17.02
2024-04-24T03:10:56.729Z,17.30
2024-04-24T03:14:04.017Z,17.05
2024-04-24T03:17:20.005Z,17.73
2024-04-24T03:20:26.802Z,16.42
2024-04-24T03:23:39.764Z,17.23
2024-04-24T03:26:48.668Z,17.60
2024-04-24T03:29:54.882Z,18.05
2024-04-24T03:33:03.362Z,18.17
2024-04-24T03:36:15.780Z,17.05
2024-04-24T03:39:27.039Z,15.45
2024-04-24T03:42:38.110Z,16.60
2024-04-24T03:45:47.482Z,15.63
2024-04-24T03:49:00.453Z,17.30
2024-04-24T03:52:09.747Z,18.35
2024-04-24T03:55:20.132Z,17.42
2024-04-24T04:01:54.336Z,19.27
2024-04-24T04:05:01.676Z,17.58
2024-04-24T04:08:09.423Z,16.42
2024-04-24T04:11:24.574Z,16.48
2024-04-24T04:14:36.652Z,16.13
2024-04-24T04:17:46.522Z,20.42
2024-04-24T04:20:55.140Z,16.45
2024-04-24T04:24:05.430Z,16.38
2024-04-24T04:27:16.611Z,15.75
2024-04-24T04:30:28.400Z,16.42
2024-04-24T04:33:38.134Z,15.23
2024-04-24T04:36:47.584Z,17.00
2024-04-24T04:39:57.577Z,15.85
2024-04-24T04:43:09.784Z,14.38
2024-04-24T04:46:18.369Z,17.63
2024-04-24T04:49:24.689Z,15.65
2024-04-24T04:52:34.506Z,16.63
2024-04-24T04:55:46.533Z,15.73
2024-04-24T04:58:59.755Z,13.48
2024-04-24T05:02:11.510Z,13.05
2024-04-24T05:05:25.790Z,13.73
2024-04-24T05:08:35.812Z,13.75
2024-04-24T05:11:47.805Z,12.98
2024-04-24T05:15:00.578Z,13.50
2024-04-24T05:21:54.243Z,14.88
2024-04-24T05:25:04.230Z,14.35
2024-04-24T05:28:38.301Z,13.95
2024-04-24T05:31:49.595Z,10.30
2024-04-24T05:35:01.627Z,14.35
2024-04-24T05:38:17.042Z,15.98
2024-04-24T05:41:30.040Z,13.02
2024-04-24T05:44:40.242Z,12.38
2024-04-24T05:47:53.436Z,13.82
2024-04-24T05:51:08.477Z,13.13
2024-04-24T05:54:19.328Z,13.30
2024-04-24T05:57:29.290Z,13.50
2024-04-24T06:00:39.780Z,15.88
2024-04-24T06:03:49.143Z,12.02
2024-04-24T06:06:58.500Z,12.52
2024-04-24T06:10:12.668Z,14.02
2024-04-24T06:13:25.623Z,12.05
2024-04-24T06:16:33.748Z,13.32
2024-04-24T06:19:49.023Z,13.02
2024-04-24T06:26:22.343Z,12.45
2024-04-24T06:29:30.786Z,13.63
2024-04-24T06:32:39.309Z,12.18
2024-04-24T06:35:50.118Z,10.70
2024-04-24T06:38:56.736Z,11.52
2024-04-24T06:42:03.015Z,12.40
2024-04-24T06:45:12.290Z,11.23
2024-04-24T06:48:21.574Z,11.18
2024-04-24T06:51:36.407Z,13.35
2024-04-24T06:54:49.057Z,11.10
2024-04-24T06:57:58.446Z,12.85
2024-04-24T07:01:12.274Z,11.73
2024-04-24T07:04:25.656Z,10.97
2024-04-24T07:07:33.377Z,11.52
2024-04-24T07:10:41.420Z,9.93
2024-04-24T07:13:49.648Z,10.90
2024-04-24T07:16:57.813Z,11.45
2024-04-24T07:20:05.088Z,17.08
2024-04-24T07:23:18.527Z,11.10
2024-04-24T07:26:28.728Z,10.40
2024-04-24T07:29:42.463Z,11.80
2024-04-24T07:32:53.539Z,11.20
2024-04-24T07:36:07.800Z,15.20
2024-04-24T07:39:21.401Z,12.20
2024-04-24T07:42:30.402Z,10.40
2024-04-24T07:45:38.136Z,10.60
2024-04-24T07:48:48.727Z,12.00
2024-04-24T07:51:55.070Z,11.98
2024-04-24T07:55:01.356Z,10.20
2024-04-24T07:58:07.627Z,12.90
2024-04-24T08:01:15.552Z,11.07
2024-04-24T08:04:24.861Z,11.10
2024-04-24T08:07:38.344Z,10.18
2024-04-24T08:10:46.076Z,10.45
2024-04-24T08:13:56.131Z,11.63
2024-04-24T08:17:06.070Z,14.65
2024-04-24T08:20:14.673Z,11.85
2024-04-24T08:23:26.978Z,12.93
2024-04-24T08:26:38.682Z,13.13
2024-04-24T08:29:53.456Z,20.25
2024-04-24T08:33:01.723Z,10.50
2024-04-24T08:36:11.277Z,10.45
2024-04-24T08:39:20.421Z,9.30
2024-04-24T08:42:27.631Z,10.40
2024-04-24T08:45:34.232Z,12.07
2024-04-24T08:48:56.634Z,10.13
2024-04-24T08:52:07.083Z,14.52
2024-04-24T08:55:17.826Z,10.68
2024-04-24T08:58:34.438Z,13.90
2024-04-24T09:01:51.779Z,10.30
2024-04-24T09:05:05.342Z,9.18
2024-04-24T09:11:20.061Z,9.77
2024-04-24T09:14:30.090Z,9.98
2024-04-24T09:17:41.265Z,9.15
2024-04-24T09:20:53.529Z,9.98
2024-04-24T09:24:00.210Z,9.30
2024-04-24T09:27:12.124Z,9.75
2024-04-24T09:30:20.171Z,10.23
2024-04-24T09:33:30.128Z,10.75
2024-04-24T09:36:44.840Z,10.48
2024-04-24T09:39:55.083Z,10.65
2024-04-24T09:43:10.080Z,10.70
2024-04-24T09:46:24.186Z,10.00
2024-04-24T09:52:40.719Z,9.73
2024-04-24T09:55:56.536Z,10.13
2024-04-24T09:59:06.704Z,10.60
2024-04-24T10:02:21.557Z,9.75
2024-04-24T10:05:39.686Z,9.32
2024-04-24T10:09:07.564Z,9.93
2024-04-24T10:12:47.298Z,9.90
2024-04-24T10:16:16.497Z,9.82
2024-04-24T10:19:28.652Z,11.23
2024-04-24T10:22:43.601Z,10.25
2024-04-24T10:25:53.294Z,10.18
2024-04-24T10:29:01.359Z,10.02
2024-04-24T10:32:12.056Z,9.45
2024-04-24T10:38:41.316Z,9.80
2024-04-24T10:41:52.303Z,8.93
2024-04-24T10:45:09.557Z,9.75
2024-04-24T10:48:17.321Z,11.45
2024-04-24T10:51:35.336Z,9.63
2024-04-24T10:54:50.857Z,9.75
2024-04-24T10:57:59.294Z,7.20
2024-04-24T11:01:13.052Z,10.35
2024-04-24T11:04:22.493Z,16.92
2024-04-24T11:07:38.326Z,9.75
2024-04-24T11:10:59.373Z,10.45
2024-04-24T11:14:15.428Z,9.75
2024-04-24T11:17:29.700Z,10.27
2024-04-24T11:20:41.716Z,7.05
2024-04-24T11:23:56.830Z,10.63
2024-04-24T11:27:11.363Z,10.98
2024-04-24T11:30:25.303Z,10.30
2024-04-24T11:33:37.704Z,10.65
2024-04-24T11:36:54.847Z,9.82
2024-04-24T11:40:06.492Z,10.50
2024-04-24T11:43:16.115Z,11.13
2024-04-24T11:46:28.385Z,10.90
2024-04-24T11:49:37.141Z,11.25
2024-04-24T11:52:50.901Z,10.40
2024-04-24T11:59:19.086Z,10.80
2024-04-24T12:02:29.768Z,10.55
2024-04-24T12:05:40.719Z,11.27
2024-04-24T12:08:53.316Z,10.93
2024-04-24T12:12:03.137Z,12.40
2024-04-24T12:15:16.521Z,11.48
2024-04-24T12:18:25.270Z,12.98
2024-04-24T12:21:32.887Z,13.82
2024-04-24T12:24:42.431Z,13.40
2024-04-24T12:27:49.772Z,10.93
2024-04-24T12:30:59.999Z,11.25
2024-04-24T12:34:10.763Z,11.80
2024-04-24T12:37:25.309Z,11.38
2024-04-24T12:40:35.364Z,12.40
2024-04-24T12:43:44.145Z,11.40
2024-04-24T12:46:52.865Z,11.77
2024-04-24T12:50:03.329Z,11.40
2024-04-24T12:53:11.364Z,13.43
2024-04-24T12:56:21.494Z,11.52
2024-04-24T12:59:35.220Z,10.82
2024-04-24T13:02:43.960Z,10.00
2024-04-24T13:05:58.291Z,11.30
2024-04-24T13:09:07.104Z,11.98
2024-04-24T13:12:23.026Z,11.77
2024-04-24T13:15:30.931Z,14.15
2024-04-24T13:18:41.730Z,12.65
2024-04-24T13:21:51.353Z,12.13
2024-04-24T13:24:59.177Z,11.68
2024-04-24T13:28:08.058Z,14.00
2024-04-24T13:31:17.822Z,12.75
2024-04-24T13:34:27.915Z,13.20
2024-04-24T13:37:37.556Z,12.77
2024-04-24T13:40:47.453Z,11.93
2024-04-24T13:43:59.879Z,10.70
2024-04-24T13:47:14.423Z,11.77
2024-04-24T13:50:24.041Z,12.38
2024-04-24T13:53:31.952Z,12.18
2024-04-24T13:56:39.186Z,12.43
2024-04-24T13:59:51.072Z,13.02
2024-04-24T14:03:03.063Z,12.20
2024-04-24T14:06:09.974Z,10.85
2024-04-24T14:09:24.596Z,10.90
2024-04-24T14:12:35.693Z,10.30
2024-04-24T14:15:45.227Z,11.80
2024-04-24T14:18:55.091Z,10.45
2024-04-24T14:22:06.539Z,9.98
2024-04-24T14:25:15.069Z,10.52
2024-04-24T14:28:26.353Z,9.48
2024-04-24T14:31:34.401Z,9.68
2024-04-24T14:34:53.108Z,9.90
2024-04-24T14:38:05.995Z,9.65
2024-04-24T14:41:14.026Z,10.68
2024-04-24T14:44:21.073Z,9.98
2024-04-24T14:47:32.770Z,11.00
2024-04-24T14:50:42.967Z,10.23
2024-04-24T14:53:56.435Z,10.20
2024-04-24T14:57:05.968Z,10.43
2024-04-24T15:00:15.476Z,10.27
2024-04-24T15:03:32.373Z,10.60
2024-04-24T15:06:40.567Z,10.40
2024-04-24T15:09:49.056Z,13.07
2024-04-24T15:12:59.395Z,14.82
2024-04-24T15:16:12.421Z,11.95
2024-04-24T15:19:21.221Z,12.07
2024-04-24T15:22:32.987Z,12.63
2024-04-24T15:25:44.031Z,11.90
2024-04-24T15:28:52.514Z,11.68
2024-04-24T15:32:04.982Z,12.13
2024-04-24T15:35:18.132Z,9.30
2024-04-24T15:38:29.481Z,12.13
2024-04-24T15:41:47.637Z,12.68
2024-04-24T15:44:55.905Z,18.92
2024-04-24T15:48:07.769Z,11.57
2024-04-24T15:51:17.652Z,11.73
2024-04-24T15:54:28.366Z,12.38
2024-04-24T15:57:38.887Z,13.00
2024-04-24T16:00:50.615Z,13.15
2024-04-24T16:04:02.573Z,11.77
2024-04-24T16:07:15.778Z,13.52
2024-04-24T16:10:23.198Z,13.00
2024-04-24T16:13:29.970Z,13.13
2024-04-24T16:16:40.689Z,14.82
2024-04-24T16:19:54.824Z,15.88
2024-04-24T16:23:02.295Z,12.60
2024-04-24T16:26:10.635Z,12.63
2024-04-24T16:29:20.219Z,12.02
2024-04-24T16:32:31.779Z,11.40
2024-04-24T16:35:43.608Z,12.45
2024-04-24T16:38:53.988Z,11.80
2024-04-24T16:42:01.892Z,11.32
2024-04-24T16:45:08.265Z,13.13
2024-04-24T16:48:20.760Z,12.70
2024-04-24T16:51:30.553Z,11.80
2024-04-24T16:54:44.017Z,10.63
2024-04-24T16:58:07.651Z,11.10
2024-04-24T17:01:18.145Z,11.95
2024-04-24T17:04:29.299Z,11.98
2024-04-24T17:07:37.675Z,11.82
2024-04-24T17:10:46.170Z,11.65
2024-04-24T17:13:56.631Z,12.27
2024-04-24T17:17:12.618Z,12.50
2024-04-24T17:20:22.498Z,11.82
2024-04-24T17:23:33.572Z,10.80
2024-04-24T17:26:41.845Z,11.10
2024-04-24T17:29:48.727Z,11.73
2024-04-24T17:32:59.576Z,11.15
2024-04-24T17:36:10.108Z,11.98
2024-04-24T17:39:22.719Z,12.45
2024-04-24T17:42:29.669Z,11.52
2024-04-24T17:45:39.611Z,10.98
2024-04-24T17:48:47.278Z,11.80
2024-04-24T17:51:53.705Z,11.75
2024-04-24T17:55:02.080Z,11.07
2024-04-24T17:58:09.187Z,10.23
2024-04-24T18:01:22.373Z,10.77
2024-04-24T18:04:31.484Z,10.68
2024-04-24T18:07:40.432Z,12.15
2024-04-24T18:10:50.386Z,12.52
2024-04-24T18:13:57.154Z,11.15
2024-04-24T18:17:04.333Z,12.02
2024-04-24T18:20:19.142Z,11.30
2024-04-24T18:23:30.659Z,12.13
2024-04-24T18:26:42.630Z,11.57
2024-04-24T18:29:49.907Z,10.68
2024-04-24T18:32:57.800Z,11.45
2024-04-24T18:36:04.610Z,11.45
2024-04-24T18:39:20.750Z,11.07
2024-04-24T18:42:30.319Z,11.02
2024-04-24T18:45:36.773Z,11.25
2024-04-24T18:48:43.293Z,10.85
2024-04-24T18:51:51.016Z,10.93
2024-04-24T18:54:58.179Z,11.40
2024-04-24T18:58:04.452Z,11.85
2024-04-24T19:01:11.022Z,10.88
2024-04-24T19:04:18.308Z,11.10
2024-04-24T19:07:27.831Z,10.82
2024-04-24T19:10:39.493Z,12.10
2024-04-24T19:13:48.976Z,10.55
2024-04-24T19:16:57.644Z,10.10
2024-04-24T19:20:04.798Z,10.80
2024-04-24T19:23:19.787Z,10.13
2024-04-24T19:26:26.733Z,9.93
2024-04-24T19:29:38.470Z,11.00
2024-04-24T19:32:45.281Z,11.82
2024-04-24T19:35:56.926Z,12.18
2024-04-24T19:39:07.349Z,12.07
2024-04-24T19:42:14.423Z,12.80
2024-04-24T19:45:24.141Z,11.88
2024-04-24T19:48:34.634Z,12.02
2024-04-24T19:51:48.036Z,11.68
2024-04-24T19:55:00.169Z,12.95
2024-04-24T19:58:09.653Z,13.80
2024-04-24T20:01:19.486Z,13.52
2024-04-24T20:04:30.928Z,12.82
2024-04-24T20:07:41.705Z,12.93
2024-04-24T20:10:58.223Z,13.38
2024-04-24T20:14:09.857Z,14.35
2024-04-24T20:17:24.134Z,13.68
2024-04-24T20:20:33.785Z,13.15
2024-04-24T20:23:46.074Z,13.88
2024-04-24T20:26:52.325Z,14.05
2024-04-24T20:30:02.441Z,13.93
2024-04-24T20:33:14.930Z,14.48
2024-04-24T20:36:27.623Z,14.25
2024-04-24T20:39:38.140Z,14.43
2024-04-24T20:42:50.832Z,14.57
2024-04-24T20:45:58.101Z,14.02
2024-04-24T20:49:04.312Z,13.93
2024-04-24T20:52:14.458Z,14.57
2024-04-24T20:55:22.726Z,15.98
2024-04-24T20:58:30.368Z,15.98
2024-04-24T21:01:38.541Z,15.05
2024-04-24T21:04:47.255Z,16.08
2024-04-24T21:07:56.169Z,15.65
2024-04-24T21:11:07.836Z,15.45
2024-04-24T21:14:20.618Z,16.08
2024-04-24T21:17:26.937Z,18.02
2024-04-24T21:20:35.754Z,16.98
2024-04-24T21:23:45.604Z,16.52
2024-04-24T21:26:57.765Z,15.35
2024-04-24T21:30:06.483Z,16.20
2024-04-24T21:33:13.681Z,16.95
2024-04-24T21:36:23.591Z,16.80
2024-04-24T21:39:31.627Z,15.75
2024-04-24T21:42:51.518Z,16.17
2024-04-24T21:46:03.943Z,15.13
2024-04-24T21:49:15.631Z,16.17
2024-04-24T21:52:34.669Z,16.50
2024-04-24T21:55:43.593Z,16.17
2024-04-24T21:58:49.993Z,16.25
2024-04-24T22:02:01.746Z,16.30
2024-04-24T22:05:12.431Z,15.27
2024-04-24T22:08:26.601Z,15.15
2024-04-24T22:11:35.065Z,15.68
2024-04-24T22:14:41.526Z,16.33
2024-04-24T22:17:56.669Z,15.88
2024-04-24T22:21:09.508Z,15.65
2024-04-24T22:24:23.049Z,14.25
2024-04-24T22:27:29.341Z,15.57
2024-04-24T22:30:38.268Z,14.45
2024-04-24T22:33:57.209Z,15.15
2024-04-24T22:37:10.238Z,16.65
2024-04-24T22:40:22.652Z,16.85
2024-04-24T22:43:32.816Z,16.45
2024-04-24T22:46:40.845Z,17.80
2024-04-24T22:49:51.683Z,18.38
2024-04-24T22:53:01.044Z,15.98
2024-04-24T22:56:15.959Z,16.63
2024-04-24T22:59:29.191Z,16.52
2024-04-24T23:02:41.490Z,16.30
2024-04-24T23:05:52.635Z,16.48
2024-04-24T23:09:21.195Z,16.67
2024-04-24T23:12:31.525Z,15.80
2024-04-24T23:15:39.391Z,16.08
2024-04-24T23:18:48.743Z,16.02
2024-04-24T23:21:58.634Z,16.13
2024-04-24T23:25:08.356Z,16.98
2024-04-24T23:28:16.827Z,17.00
2024-04-24T23:31:30.225Z,17.00
2024-04-24T23:34:38.259Z,17.92
2024-04-24T23:37:46.124Z,17.60
2024-04-24T23:40:56.755Z,18.15
2024-04-24T23:44:05.361Z,18.08
2024-04-24T23:47:15.751Z,18.70
2024-04-24T23:50:26.453Z,20.17
2024-04-24T23:53:37.473Z,21.52
2024-04-24T23:56:55.408Z,20.98
